createdAt,value
2023-01-11T00:02:10.397Z,12.80
2023-01-11T00:04:55.916Z,11.48
2023-01-11T00:07:41.066Z,10.13
2023-01-11T00:10:27.122Z,11.45
2023-01-11T00:13:14.165Z,9.63
2023-01-11T00:16:06.840Z,9.77
2023-01-11T00:18:52.132Z,10.93
2023-01-11T00:21:37.651Z,12.75
2023-01-11T00:24:23.264Z,9.77
2023-01-11T00:27:08.653Z,9.57
2023-01-11T00:29:54.124Z,10.05
2023-01-11T00:32:39.573Z,10.18
2023-01-11T00:35:25.776Z,7.05
2023-01-11T00:38:31.416Z,8.63
2023-01-11T00:41:36.734Z,6.10
2023-01-11T00:44:40.846Z,7.72
2023-01-11T00:47:44.622Z,8.40
2023-01-11T00:50:33.137Z,6.63
2023-01-11T00:53:19.494Z,7.25
2023-01-11T00:56:05.045Z,7.25
2023-01-11T00:58:50.467Z,9.57
2023-01-11T01:01:36.404Z,6.97
2023-01-11T01:04:21.649Z,5.68
2023-01-11T01:07:08.056Z,9.30
2023-01-11T01:09:53.354Z,9.48
2023-01-11T01:12:57.399Z,5.65
2023-01-11T01:15:42.873Z,7.13
2023-01-11T01:18:28.268Z,8.02
2023-01-11T01:21:13.675Z,6.72
2023-01-11T01:23:59.180Z,9.70
2023-01-11T01:26:44.683Z,5.63
2023-01-11T01:29:30.087Z,8.93
2023-01-11T01:32:15.607Z,9.05
2023-01-11T01:35:01.002Z,7.18
2023-01-11T01:37:46.634Z,5.90
2023-01-11T01:40:32.064Z,6.85
2023-01-11T01:43:18.513Z,7.15
2023-01-11T01:46:04.206Z,6.95
2023-01-11T01:48:55.250Z,5.95
2023-01-11T01:51:44.138Z,5.85
2023-01-11T01:54:35.574Z,8.02
2023-01-11T01:57:25.355Z,5.57
2023-01-11T02:00:11.444Z,4.93
2023-01-11T02:02:58.974Z,5.68
2023-01-11T02:05:45.338Z,4.95
2023-01-11T02:08:36.969Z,6.90
2023-01-11T02:11:31.898Z,7.20
2023-01-11T02:14:20.217Z,5.63
2023-01-11T02:17:05.994Z,6.55
2023-01-11T02:19:57.266Z,5.70
2023-01-11T02:23:03.689Z,4.50
2023-01-11T02:26:15.089Z,5.97
2023-01-11T02:29:24.035Z,8.77
2023-01-11T02:32:41.610Z,7.55
2023-01-11T02:35:30.029Z,4.32
2023-01-11T02:38:37.350Z,9.50
2023-01-11T02:41:58.641Z,10.80
2023-01-11T02:45:02.392Z,9.35
2023-01-11T02:48:16.535Z,15.10
2023-01-11T02:51:14.857Z,13.90
2023-01-11T02:54:05.874Z,9.68
2023-01-11T02:56:56.226Z,20.17
2023-01-11T02:59:42.866Z,14.93
2023-01-11T03:02:29.093Z,20.17
2023-01-11T03:05:15.081Z,17.73
2023-01-11T03:08:22.533Z,19.23
2023-01-11T03:11:14.543Z,22.92
2023-01-11T03:14:22.694Z,18.52
2023-01-11T03:17:33.746Z,18.35
2023-01-11T03:20:25.433Z,17.52
2023-01-11T03:23:22.312Z,13.50
2023-01-11T03:26:16.562Z,16.90
2023-01-11T03:29:19.693Z,18.10
2023-01-11T03:32:22.417Z,19.30
2023-01-11T03:35:33.064Z,17.52
2023-01-11T03:38:24.892Z,24.58
2023-01-11T03:41:16.403Z,20.55
2023-01-11T03:44:05.319Z,16.55
2023-01-11T03:46:55.451Z,20.52
2023-01-11T03:49:47.464Z,17.98
2023-01-11T03:52:37.392Z,16.58
2023-01-11T03:55:26.489Z,13.63
2023-01-11T03:58:12.025Z,19.23
2023-01-11T04:00:58.653Z,21.42
2023-01-11T04:03:44.116Z,16.10
2023-01-11T04:06:31.342Z,24.33
2023-01-11T04:09:16.717Z,20.20
2023-01-11T04:12:02.362Z,20.15
2023-01-11T04:14:47.930Z,16.08
2023-01-11T04:17:33.464Z,21.02
2023-01-11T04:20:18.943Z,18.90
2023-01-11T04:23:05.833Z,24.23
2023-01-11T04:25:51.551Z,22.30
2023-01-11T04:28:37.101Z,17.80
2023-01-11T04:31:22.610Z,22.33
2023-01-11T04:34:08.001Z,23.15
2023-01-11T04:36:53.560Z,20.58
2023-01-11T04:39:39.050Z,21.23
2023-01-11T04:42:25.891Z,18.20
2023-01-11T04:45:11.158Z,24.33
2023-01-11T04:47:57.807Z,15.57
2023-01-11T04:50:43.043Z,18.52
2023-01-11T04:53:28.423Z,18.95
2023-01-11T04:56:13.890Z,13.90
2023-01-11T04:58:59.394Z,15.20
2023-01-11T05:01:44.992Z,19.83
2023-01-11T05:04:30.512Z,20.58
2023-01-11T05:07:15.791Z,19.10
2023-01-11T05:10:01.777Z,17.67
2023-01-11T05:12:47.374Z,15.88
2023-01-11T05:15:34.852Z,14.50
2023-01-11T05:18:20.359Z,22.60
2023-01-11T05:21:06.459Z,10.38
2023-01-11T05:23:52.158Z,19.33
2023-01-11T05:26:39.846Z,17.17
2023-01-11T05:29:25.121Z,13.10
2023-01-11T05:32:12.189Z,21.17
2023-01-11T05:34:57.363Z,14.88
2023-01-11T05:37:42.809Z,16.55
2023-01-11T05:40:28.406Z,15.05
2023-01-11T05:43:13.987Z,17.08
2023-01-11T05:46:00.860Z,11.60
2023-01-11T05:48:46.283Z,13.95
2023-01-11T05:51:32.628Z,15.82
2023-01-11T05:54:17.870Z,14.10
2023-01-11T05:57:03.502Z,15.52
2023-01-11T05:59:49.102Z,14.63
2023-01-11T06:02:35.356Z,14.73
2023-01-11T06:05:20.808Z,13.57
2023-01-11T06:08:06.354Z,12.00
2023-01-11T06:10:56.231Z,10.32
2023-01-11T06:13:41.966Z,11.30
2023-01-11T06:16:27.490Z,18.05
2023-01-11T06:19:12.596Z,12.93
2023-01-11T06:21:57.906Z,15.13
2023-01-11T06:24:43.493Z,11.10
2023-01-11T06:27:28.791Z,20.67
2023-01-11T06:30:14.361Z,11.18
2023-01-11T06:33:06.180Z,13.60
2023-01-11T06:35:52.506Z,11.32
2023-01-11T06:38:38.424Z,12.68
2023-01-11T06:41:23.907Z,13.82
2023-01-11T06:44:09.126Z,15.10
2023-01-11T06:46:54.513Z,19.30
2023-01-11T06:49:40.110Z,17.00
2023-01-11T06:52:25.729Z,10.40
2023-01-11T06:55:11.354Z,13.30
2023-01-11T06:57:57.318Z,10.93
2023-01-11T07:00:42.937Z,14.05
2023-01-11T07:03:28.663Z,10.40
2023-01-11T07:06:14.100Z,11.75
2023-01-11T07:08:59.926Z,14.55
2023-01-11T07:11:44.905Z,18.40
2023-01-11T07:14:30.186Z,15.15
2023-01-11T07:17:15.733Z,15.18
2023-01-11T07:20:00.921Z,12.18
2023-01-11T07:22:46.597Z,14.40
2023-01-11T07:25:31.841Z,14.80
2023-01-11T07:28:17.514Z,12.07
2023-01-11T07:31:02.826Z,14.07
2023-01-11T07:33:48.449Z,13.82
2023-01-11T07:36:39.314Z,12.50
2023-01-11T07:39:34.782Z,13.73
2023-01-11T07:42:46.436Z,14.60
2023-01-11T07:45:44.667Z,21.90
2023-01-11T07:48:30.952Z,12.20
2023-01-11T07:51:20.432Z,10.13
2023-01-11T07:54:06.195Z,12.55
2023-01-11T07:56:51.914Z,18.55
2023-01-11T07:59:37.905Z,18.98
2023-01-11T08:02:23.985Z,13.90
2023-01-11T08:05:10.135Z,16.45
2023-01-11T08:07:55.868Z,15.88
2023-01-11T08:10:42.250Z,16.60
2023-01-11T08:13:46.586Z,23.50
2023-01-11T08:16:31.995Z,16.17
2023-01-11T08:19:17.574Z,9.70
2023-01-11T08:22:03.048Z,15.90
2023-01-11T08:24:48.605Z,18.13
2023-01-11T08:27:34.264Z,11.02
2023-01-11T08:30:19.873Z,12.23
2023-01-11T08:33:05.984Z,13.93
2023-01-11T08:35:51.461Z,13.52
2023-01-11T08:38:37.318Z,17.73
2023-01-11T08:41:24.108Z,16.85
2023-01-11T08:44:11.690Z,18.00
2023-01-11T08:46:57.252Z,14.55
2023-01-11T08:49:43.035Z,15.05
2023-01-11T08:52:28.911Z,19.48
2023-01-11T08:55:14.458Z,17.45
2023-01-11T08:57:59.849Z,17.30
2023-01-11T09:00:45.530Z,13.30
2023-01-11T09:03:31.696Z,13.00
2023-01-11T09:06:18.875Z,20.10
2023-01-11T09:09:04.619Z,13.55
2023-01-11T09:12:00.909Z,13.68
2023-01-11T09:14:46.628Z,11.48
2023-01-11T09:17:32.113Z,13.13
2023-01-11T09:20:17.782Z,11.55
2023-01-11T09:23:03.226Z,16.48
2023-01-11T09:25:48.704Z,13.77
2023-01-11T09:28:34.234Z,10.10
2023-01-11T09:31:19.777Z,16.30
2023-01-11T09:34:06.988Z,14.02
2023-01-11T09:36:52.957Z,13.38
2023-01-11T09:39:39.116Z,17.95
2023-01-11T09:42:39.402Z,15.77
2023-01-11T09:45:28.302Z,12.18
2023-01-11T09:48:43.508Z,15.25
2023-01-11T09:51:39.685Z,11.48
2023-01-11T09:54:27.433Z,14.38
2023-01-11T09:57:35.851Z,13.57
2023-01-11T10:00:40.789Z,13.45
2023-01-11T10:03:57.339Z,12.77
2023-01-11T10:07:21.437Z,18.17
2023-01-11T10:18:21.143Z,16.90
2023-01-11T10:18:26.025Z,19.35
2023-01-11T10:20:35.295Z,14.82
2023-01-11T10:23:41.642Z,20.77
2023-01-11T10:26:35.996Z,18.25
2023-01-11T10:29:59.538Z,18.20
2023-01-11T10:32:54.134Z,20.80
2023-01-11T10:36:33.014Z,16.38
2023-01-11T10:39:38.625Z,18.27
2023-01-11T10:42:28.851Z,15.27
2023-01-11T10:45:37.169Z,18.13
2023-01-11T10:48:37.062Z,11.20
2023-01-11T10:51:29.264Z,17.95
2023-01-11T10:54:27.012Z,17.92
2023-01-11T10:57:38.152Z,25.92
2023-01-11T11:00:48.865Z,23.85
2023-01-11T11:03:36.745Z,15.55
2023-01-11T11:06:51.536Z,20.10
2023-01-11T11:10:02.928Z,18.13
2023-01-11T11:13:22.679Z,17.25
2023-01-11T11:16:18.521Z,21.00
2023-01-11T11:19:03.948Z,17.00
2023-01-11T11:21:52.136Z,22.02
2023-01-11T11:24:42.879Z,18.95
2023-01-11T11:27:40.192Z,18.80
2023-01-11T11:30:33.719Z,19.75
2023-01-11T11:33:33.177Z,18.13
2023-01-11T11:36:18.764Z,19.80
2023-01-11T11:39:19.710Z,20.30
2023-01-11T11:42:16.408Z,21.48
2023-01-11T11:45:10.952Z,16.55
2023-01-11T11:48:05.957Z,21.52
2023-01-11T11:50:53.710Z,18.95
2023-01-11T11:53:48.098Z,17.65
2023-01-11T11:56:35.970Z,17.98
2023-01-11T11:59:23.911Z,17.55
2023-01-11T12:02:26.263Z,18.90
2023-01-11T12:07:57.494Z,21.75
2023-01-11T12:10:49.698Z,19.55
2023-01-11T12:16:31.957Z,18.05
2023-01-11T12:19:29.726Z,15.05
2023-01-11T12:22:20.327Z,19.50
2023-01-11T12:25:08.558Z,15.32
2023-01-11T12:28:34.282Z,15.00
2023-01-11T12:31:38.046Z,21.70
2023-01-11T12:34:51.036Z,13.32
2023-01-11T12:40:42.849Z,14.02
2023-01-11T12:43:53.217Z,15.45
2023-01-11T12:47:18.192Z,14.98
2023-01-11T12:50:15.403Z,15.40
2023-01-11T12:53:40.104Z,16.45
2023-01-11T12:57:04.262Z,16.65
2023-01-11T13:00:10.289Z,10.60
2023-01-11T13:03:17.090Z,16.33
2023-01-11T13:06:07.356Z,14.95
2023-01-11T13:09:20.056Z,18.98
2023-01-11T13:15:25.607Z,17.42
2023-01-11T13:18:39.261Z,19.90
2023-01-11T13:21:36.073Z,19.38
2023-01-11T13:24:27.269Z,16.70
2023-01-11T13:27:19.374Z,17.92
2023-01-11T13:30:05.416Z,19.10
2023-01-11T13:33:10.809Z,17.13
2023-01-11T13:36:15.035Z,24.15
2023-01-11T13:39:35.262Z,17.15
2023-01-11T13:42:43.323Z,18.63
2023-01-11T13:45:37.471Z,17.65
2023-01-11T13:48:46.131Z,21.05
2023-01-11T13:51:38.793Z,21.60
2023-01-11T13:54:56.727Z,20.73
2023-01-11T13:57:51.182Z,28.20
2023-01-11T14:00:45.811Z,18.17
2023-01-11T14:03:55.131Z,17.58
2023-01-11T14:06:54.185Z,14.95
2023-01-11T14:10:04.526Z,17.55
2023-01-11T14:13:53.304Z,12.95
2023-01-11T14:17:00.377Z,16.90
2023-01-11T14:20:12.241Z,16.33
2023-01-11T14:23:19.926Z,17.60
2023-01-11T14:26:21.210Z,17.33
2023-01-11T14:29:34.074Z,14.00
2023-01-11T14:32:47.845Z,11.38
2023-01-11T14:35:59.113Z,14.50
2023-01-11T14:38:56.156Z,20.33
2023-01-11T14:42:07.958Z,10.45
2023-01-11T14:45:16.668Z,19.23
2023-01-11T14:48:13.776Z,13.35
2023-01-11T14:51:30.649Z,16.10
2023-01-11T14:54:41.735Z,10.68
2023-01-11T14:57:44.884Z,14.38
2023-01-11T15:00:30.402Z,14.00
2023-01-11T15:03:23.662Z,13.30
2023-01-11T15:06:14.555Z,15.20
2023-01-11T15:09:00.330Z,14.88
2023-01-11T15:11:45.836Z,11.93
2023-01-11T15:14:37.298Z,15.05
2023-01-11T15:17:45.723Z,13.70
2023-01-11T15:20:33.665Z,19.25
2023-01-11T15:23:19.407Z,13.27
2023-01-11T15:26:07.830Z,19.75
2023-01-11T15:28:57.454Z,15.30
2023-01-11T15:31:54.793Z,14.68
2023-01-11T15:34:40.066Z,18.52
2023-01-11T15:37:32.601Z,14.30
2023-01-11T15:40:25.202Z,12.88
2023-01-11T15:43:22.388Z,13.63
2023-01-11T15:46:54.334Z,17.30
2023-01-11T15:50:06.300Z,16.13
2023-01-11T15:53:00.850Z,21.13
2023-01-11T15:55:49.573Z,19.10
2023-01-11T15:59:13.165Z,17.95
2023-01-11T16:02:13.819Z,18.50
2023-01-11T16:05:11.545Z,14.48
2023-01-11T16:08:25.528Z,18.23
2023-01-11T16:11:34.719Z,22.20
2023-01-11T16:14:54.905Z,16.77
2023-01-11T16:17:41.824Z,25.52
2023-01-11T16:20:28.791Z,19.25
2023-01-11T16:23:19.995Z,19.10
2023-01-11T16:26:07.670Z,21.38
2023-01-11T16:28:58.444Z,23.95
2023-01-11T16:32:00.467Z,23.00
2023-01-11T16:34:50.188Z,16.47
2023-01-11T16:37:43.711Z,20.42
2023-01-11T16:40:36.396Z,19.75
2023-01-11T16:43:34.004Z,14.82
2023-01-11T16:46:50.465Z,28.98
2023-01-11T16:49:37.033Z,25.23
2023-01-11T16:52:37.818Z,20.45
2023-01-11T16:55:37.779Z,17.42
2023-01-11T16:58:29.021Z,23.08
2023-01-11T17:01:15.400Z,24.63
2023-01-11T17:04:03.024Z,24.52
2023-01-11T17:06:48.524Z,16.88
2023-01-11T17:09:34.073Z,23.00
2023-01-11T17:12:23.161Z,18.95
2023-01-11T17:15:53.927Z,19.38
2023-01-11T17:18:41.018Z,19.90
2023-01-11T17:21:29.060Z,20.85
2023-01-11T17:24:15.427Z,19.67
2023-01-11T17:27:02.258Z,18.95
2023-01-11T17:29:49.175Z,22.27
2023-01-11T17:32:40.181Z,20.08
2023-01-11T17:35:33.775Z,27.38
2023-01-11T17:38:24.954Z,21.23
2023-01-11T17:41:30.890Z,17.20
2023-01-11T17:44:40.492Z,18.00
2023-01-11T17:47:26.431Z,23.35
2023-01-11T17:50:29.059Z,16.25
2023-01-11T17:53:16.520Z,25.90
2023-01-11T17:56:04.532Z,21.65
2023-01-11T17:58:49.801Z,23.45
2023-01-11T18:01:36.569Z,22.52
2023-01-11T18:04:23.665Z,17.38
2023-01-11T18:07:16.055Z,23.77
2023-01-11T18:10:03.797Z,23.55
2023-01-11T18:12:50.798Z,20.02
2023-01-11T18:15:37.901Z,24.65
2023-01-11T18:18:42.908Z,15.18
2023-01-11T18:21:41.233Z,16.05
2023-01-11T18:24:31.777Z,16.70
2023-01-11T18:27:28.390Z,15.82
2023-01-11T18:30:31.905Z,16.50
2023-01-11T18:33:19.889Z,17.65
2023-01-11T18:36:19.549Z,16.80
2023-01-11T18:39:12.204Z,14.32
2023-01-11T18:42:09.572Z,13.80
2023-01-11T18:44:55.264Z,19.50
2023-01-11T18:47:40.810Z,13.18
2023-01-11T18:50:26.421Z,17.42
2023-01-11T18:53:13.825Z,13.13
2023-01-11T18:55:59.117Z,15.13
2023-01-11T18:58:44.411Z,12.10
2023-01-11T19:01:33.388Z,13.05
2023-01-11T19:04:25.958Z,10.77
2023-01-11T19:07:12.537Z,17.00
2023-01-11T19:09:59.255Z,18.00
2023-01-11T19:12:45.813Z,17.77
2023-01-11T19:15:33.984Z,13.98
2023-01-11T19:18:19.599Z,13.38
2023-01-11T19:21:11.717Z,18.92
2023-01-11T19:23:58.109Z,13.23
2023-01-11T19:26:43.256Z,12.10
2023-01-11T19:29:28.723Z,16.55
2023-01-11T19:32:15.652Z,18.48
2023-01-11T19:35:01.396Z,20.48
2023-01-11T19:37:46.753Z,15.25
2023-01-11T19:40:32.259Z,14.85
2023-01-11T19:43:17.674Z,15.05
2023-01-11T19:46:04.078Z,17.70
2023-01-11T19:48:49.520Z,11.60
2023-01-11T19:51:35.024Z,15.38
2023-01-11T19:54:25.310Z,12.18
2023-01-11T19:57:12.221Z,11.82
2023-01-11T19:59:57.472Z,14.48
2023-01-11T20:02:43.027Z,16.73
2023-01-11T20:05:28.335Z,10.00
2023-01-11T20:08:13.936Z,14.20
2023-01-11T20:11:08.093Z,15.38
2023-01-11T20:13:53.802Z,15.60
2023-01-11T20:16:39.129Z,10.68
2023-01-11T20:19:24.683Z,11.20
2023-01-11T20:22:10.062Z,11.15
2023-01-11T20:24:56.051Z,10.07
2023-01-11T20:27:41.759Z,10.73
2023-01-11T20:30:27.056Z,12.35
2023-01-11T20:33:12.497Z,14.52
2023-01-11T20:35:57.956Z,11.45
2023-01-11T20:38:44.877Z,14.93
2023-01-11T20:41:48.970Z,11.00
2023-01-11T20:44:34.533Z,11.25
2023-01-11T20:47:20.225Z,13.40
2023-01-11T20:50:05.842Z,10.90
2023-01-11T20:52:51.893Z,11.52
2023-01-11T20:55:37.371Z,16.52
2023-01-11T20:58:23.067Z,18.15
2023-01-11T21:01:10.547Z,14.10
2023-01-11T21:04:00.448Z,12.43
2023-01-11T21:06:48.305Z,13.25
2023-01-11T21:09:33.819Z,16.00
2023-01-11T21:12:19.458Z,11.95
2023-01-11T21:15:08.707Z,14.60
2023-01-11T21:17:53.846Z,11.30
2023-01-11T21:20:39.637Z,10.57
2023-01-11T21:23:25.077Z,10.30
2023-01-11T21:26:18.339Z,9.68
2023-01-11T21:29:05.270Z,9.88
2023-01-11T21:31:50.764Z,10.25
2023-01-11T21:34:36.273Z,8.63
2023-01-11T21:37:24.695Z,8.88
2023-01-11T21:40:11.762Z,9.50
2023-01-11T21:42:57.525Z,13.43
2023-01-11T21:45:42.803Z,19.08
2023-01-11T21:48:28.467Z,16.52
2023-01-11T21:51:16.831Z,14.90
2023-01-11T21:54:07.176Z,20.20
2023-01-11T21:56:52.400Z,14.77
2023-01-11T21:59:37.799Z,13.93
2023-01-11T22:02:23.060Z,17.13
2023-01-11T22:05:09.251Z,10.95
2023-01-11T22:07:56.737Z,10.55
2023-01-11T22:10:42.201Z,20.83
2023-01-11T22:13:32.089Z,19.85
2023-01-11T22:16:18.606Z,19.05
2023-01-11T22:19:06.088Z,16.35
2023-01-11T22:21:51.598Z,22.52
2023-01-11T22:24:37.194Z,23.17
2023-01-11T22:27:22.818Z,20.35
2023-01-11T22:30:08.779Z,17.67
2023-01-11T22:32:54.025Z,15.00
2023-01-11T22:35:39.590Z,16.38
2023-01-11T22:38:24.921Z,17.42
2023-01-11T22:41:10.387Z,20.08
2023-01-11T22:43:55.666Z,19.05
2023-01-11T22:46:41.594Z,18.75
2023-01-11T22:49:27.054Z,14.75
2023-01-11T22:52:12.517Z,18.33
2023-01-11T22:54:57.988Z,12.73
2023-01-11T22:57:43.575Z,16.40
2023-01-11T23:00:28.908Z,16.35
2023-01-11T23:03:15.392Z,18.00
2023-01-11T23:06:01.040Z,12.10
2023-01-11T23:08:46.433Z,18.48
2023-01-11T23:11:55.693Z,16.80
2023-01-11T23:14:41.100Z,14.60
2023-01-11T23:17:26.959Z,16.55
2023-01-11T23:20:12.682Z,14.07
2023-01-11T23:22:57.924Z,13.70
2023-01-11T23:25:43.404Z,14.40
2023-01-11T23:28:30.678Z,13.95
2023-01-11T23:31:21.376Z,12.80
2023-01-11T23:34:08.321Z,23.15
2023-01-11T23:36:53.883Z,17.55
2023-01-11T23:39:39.130Z,16.52
2023-01-11T23:42:27.316Z,17.67
2023-01-11T23:45:12.406Z,18.77
2023-01-11T23:47:57.872Z,22.58
2023-01-11T23:50:43.336Z,15.75
2023-01-11T23:53:29.563Z,22.13
2023-01-11T23:56:16.079Z,20.75
2023-01-11T23:59:01.807Z,19.10
